createdAt,value
2018-01-13T00:00:26.662Z,18.00
2018-01-13T00:02:59.099Z,17.63
2018-01-13T00:05:31.845Z,17.23
2018-01-13T00:08:06.018Z,15.90
2018-01-13T00:10:38.850Z,14.90
2018-01-13T00:13:11.264Z,19.93
2018-01-13T00:15:43.712Z,18.50
2018-01-13T00:18:16.365Z,18.20
2018-01-13T00:20:48.978Z,18.00
2018-01-13T00:23:21.439Z,16.40
2018-01-13T00:25:54.193Z,16.67
2018-01-13T00:28:27.661Z,17.60
2018-01-13T00:31:00.220Z,18.07
2018-01-13T00:33:32.854Z,18.27
2018-01-13T00:36:07.041Z,16.57
2018-01-13T00:38:39.848Z,16.83
2018-01-13T00:41:13.293Z,17.53
2018-01-13T00:43:45.929Z,18.07
2018-01-13T00:46:18.697Z,17.23
2018-01-13T00:48:51.206Z,18.93
2018-01-13T00:51:23.726Z,16.80
2018-01-13T00:53:56.311Z,16.40
2018-01-13T00:56:29.189Z,16.00
2018-01-13T00:59:03.122Z,16.73
2018-01-13T01:01:35.913Z,20.20
2018-01-13T01:04:08.369Z,19.60
2018-01-13T01:06:40.846Z,21.33
2018-01-13T01:09:13.475Z,18.23
2018-01-13T01:11:46.837Z,20.83
2018-01-13T01:14:20.232Z,18.70
2018-01-13T01:16:53.734Z,16.77
2018-01-13T01:19:27.157Z,17.17
2018-01-13T01:21:59.964Z,16.17
2018-01-13T01:24:32.438Z,18.03
2018-01-13T01:27:05.840Z,18.00
2018-01-13T01:29:38.499Z,19.73
2018-01-13T01:32:11.128Z,19.00
2018-01-13T01:34:44.302Z,18.60
2018-01-13T01:37:17.380Z,19.70
2018-01-13T01:39:50.773Z,19.60
2018-01-13T01:42:23.441Z,19.97
2018-01-13T01:44:55.984Z,19.60
2018-01-13T01:47:28.535Z,22.73
2018-01-13T01:50:01.765Z,20.73
2018-01-13T01:52:35.147Z,22.80
2018-01-13T01:55:07.868Z,20.63
2018-01-13T01:57:40.746Z,20.10
2018-01-13T02:00:13.171Z,20.33
2018-01-13T02:02:45.909Z,20.23
2018-01-13T02:05:18.586Z,18.53
2018-01-13T02:07:51.071Z,21.13
2018-01-13T02:10:23.565Z,20.80
2018-01-13T02:12:56.172Z,21.50
2018-01-13T02:15:28.724Z,19.90
2018-01-13T02:18:02.363Z,21.47
2018-01-13T02:20:35.706Z,19.17
2018-01-13T02:23:08.268Z,18.23
2018-01-13T02:25:40.870Z,15.20
2018-01-13T02:28:13.428Z,20.40
2018-01-13T02:30:45.900Z,20.87
2018-01-13T02:33:18.448Z,20.23
2018-01-13T02:35:50.952Z,19.27
2018-01-13T02:38:23.583Z,20.60
2018-01-13T02:40:56.244Z,21.90
2018-01-13T02:43:29.601Z,22.77
2018-01-13T02:46:02.478Z,21.97
2018-01-13T02:48:35.046Z,22.33
2018-01-13T02:51:07.660Z,21.30
2018-01-13T02:53:40.297Z,22.53
2018-01-13T02:56:13.629Z,23.27
2018-01-13T02:58:47.036Z,21.70
2018-01-13T03:01:19.799Z,23.37
2018-01-13T03:03:53.204Z,21.93
2018-01-13T03:06:26.054Z,19.03
2018-01-13T03:08:59.220Z,15.27
2018-01-13T03:11:31.731Z,18.97
2018-01-13T03:14:05.829Z,20.23
2018-01-13T03:16:38.562Z,20.53
2018-01-13T03:19:11.037Z,17.37
2018-01-13T03:21:43.538Z,19.30
2018-01-13T03:24:16.077Z,21.83
2018-01-13T03:26:48.651Z,22.40
2018-01-13T03:29:21.192Z,19.80
2018-01-13T03:31:54.623Z,21.10
2018-01-13T03:34:28.804Z,23.73
2018-01-13T03:37:01.584Z,23.40
2018-01-13T03:39:34.124Z,24.10
2018-01-13T03:42:06.631Z,21.80
2018-01-13T03:44:39.182Z,23.47
2018-01-13T03:47:12.552Z,27.67
2018-01-13T03:49:45.072Z,25.23
2018-01-13T03:52:18.271Z,26.13
2018-01-13T03:54:50.992Z,24.60
2018-01-13T03:57:23.579Z,26.80
2018-01-13T03:59:57.156Z,26.50
2018-01-13T04:02:29.853Z,23.40
2018-01-13T04:05:02.557Z,25.77
2018-01-13T04:07:35.031Z,22.43
2018-01-13T04:10:07.615Z,26.57
2018-01-13T04:12:40.142Z,27.53
2018-01-13T04:15:12.806Z,23.60
2018-01-13T04:17:45.454Z,24.70
2018-01-13T04:20:18.754Z,27.37
2018-01-13T04:22:52.330Z,21.70
2018-01-13T04:25:25.104Z,23.17
2018-01-13T04:27:57.710Z,23.40
2018-01-13T04:30:30.953Z,21.47
2018-01-13T04:33:03.380Z,22.00
2018-01-13T04:35:35.946Z,24.07
2018-01-13T04:38:08.471Z,20.33
2018-01-13T04:40:41.773Z,24.43
2018-01-13T04:43:14.668Z,25.60
2018-01-13T04:45:47.077Z,26.10
2018-01-13T04:48:20.540Z,24.90
2018-01-13T04:50:53.809Z,23.87
2018-01-13T04:53:26.316Z,21.53
2018-01-13T04:55:59.036Z,24.53
2018-01-13T04:58:31.541Z,21.80
2018-01-13T05:01:05.667Z,25.37
2018-01-13T05:03:38.710Z,24.47
2018-01-13T05:06:11.328Z,26.40
2018-01-13T05:08:43.796Z,27.93
2018-01-13T05:11:16.364Z,23.47
2018-01-13T05:13:49.188Z,27.23
2018-01-13T05:16:22.675Z,23.13
2018-01-13T05:18:56.116Z,23.80
2018-01-13T05:21:29.846Z,26.10
2018-01-13T05:24:02.796Z,26.80
2018-01-13T05:26:35.317Z,24.83
2018-01-13T05:29:08.635Z,23.50
2018-01-13T05:31:41.435Z,29.00
2018-01-13T05:34:14.080Z,27.13
2018-01-13T05:36:46.674Z,28.57
2018-01-13T05:39:20.756Z,27.57
2018-01-13T05:41:53.453Z,25.17
2018-01-13T05:44:26.039Z,24.63
2018-01-13T05:46:58.668Z,25.90
2018-01-13T05:49:31.489Z,25.27
2018-01-13T05:52:04.629Z,25.10
2018-01-13T05:54:37.369Z,28.27
2018-01-13T05:57:09.817Z,27.60
2018-01-13T05:59:43.297Z,26.93
2018-01-13T06:02:15.728Z,25.80
2018-01-13T06:04:48.292Z,24.70
2018-01-13T06:07:20.829Z,24.90
2018-01-13T06:09:53.482Z,28.57
2018-01-13T06:12:26.748Z,29.13
2018-01-13T06:15:00.389Z,27.17
2018-01-13T06:17:33.265Z,26.77
2018-01-13T06:20:07.094Z,27.43
2018-01-13T06:22:40.050Z,24.80
2018-01-13T06:25:12.540Z,27.97
2018-01-13T06:27:45.828Z,23.67
2018-01-13T06:30:19.355Z,21.90
2018-01-13T06:32:52.095Z,20.67
2018-01-13T06:35:24.753Z,20.00
2018-01-13T06:37:57.292Z,21.20
2018-01-13T06:40:29.893Z,21.87
2018-01-13T06:43:02.960Z,24.30
2018-01-13T06:45:36.251Z,22.30
2018-01-13T06:48:08.712Z,19.60
2018-01-13T06:50:41.179Z,18.10
2018-01-13T06:53:13.709Z,17.40
2018-01-13T06:55:47.146Z,18.90
2018-01-13T06:58:19.793Z,21.87
2018-01-13T07:00:52.436Z,21.20
2018-01-13T07:03:25.089Z,20.00
2018-01-13T07:05:57.593Z,18.20
2018-01-13T07:08:30.007Z,20.87
2018-01-13T07:11:03.313Z,19.23
2018-01-13T07:13:36.078Z,15.67
2018-01-13T07:16:09.442Z,17.77
2018-01-13T07:18:42.858Z,14.53
2018-01-13T07:21:16.226Z,15.03
2018-01-13T07:23:49.094Z,15.53
2018-01-13T07:26:21.875Z,16.07
2018-01-13T07:28:54.350Z,16.50
2018-01-13T07:31:27.030Z,15.13
2018-01-13T07:34:01.205Z,12.70
2018-01-13T07:36:34.088Z,13.47
2018-01-13T07:39:07.493Z,16.30
2018-01-13T07:41:40.941Z,14.63
2018-01-13T07:44:13.532Z,12.60
2018-01-13T07:46:46.136Z,15.53
2018-01-13T07:49:19.658Z,13.87
2018-01-13T07:51:52.325Z,14.43
2018-01-13T07:54:25.733Z,14.93
2018-01-13T07:56:58.592Z,15.90
2018-01-13T07:59:31.016Z,13.57
2018-01-13T08:02:03.448Z,16.93
2018-01-13T08:04:35.902Z,14.00
2018-01-13T08:07:09.318Z,14.80
2018-01-13T08:09:42.910Z,13.10
2018-01-13T08:12:15.566Z,14.87
2018-01-13T08:14:49.126Z,14.90
2018-01-13T08:17:21.826Z,13.50
2018-01-13T08:19:55.929Z,14.57
2018-01-13T08:22:29.418Z,15.27
2018-01-13T08:25:03.032Z,15.30
2018-01-13T08:27:36.045Z,15.97
2018-01-13T08:30:09.198Z,16.23
2018-01-13T08:32:42.522Z,16.27
2018-01-13T08:35:15.200Z,10.93
2018-01-13T08:37:48.635Z,12.70
2018-01-13T08:40:22.013Z,14.90
2018-01-13T08:42:55.221Z,14.73
2018-01-13T08:45:27.603Z,14.20
2018-01-13T08:48:01.237Z,14.70
2018-01-13T08:50:34.629Z,15.00
2018-01-13T08:53:07.734Z,16.40
2018-01-13T08:55:41.787Z,15.77
2018-01-13T08:58:14.772Z,17.97
2018-01-13T09:00:47.740Z,16.47
2018-01-13T09:03:20.286Z,17.97
2018-01-13T09:05:53.759Z,16.67
2018-01-13T09:08:27.519Z,16.80
2018-01-13T09:11:01.003Z,17.40
2018-01-13T09:13:33.658Z,15.80
2018-01-13T09:16:06.914Z,16.20
2018-01-13T09:18:40.554Z,14.80
2018-01-13T09:21:13.290Z,16.57
2018-01-13T09:23:46.780Z,15.73
2018-01-13T09:26:19.208Z,16.03
2018-01-13T09:28:53.000Z,14.67
2018-01-13T09:31:25.459Z,16.27
2018-01-13T09:33:58.043Z,15.60
2018-01-13T09:36:30.669Z,16.23
2018-01-13T09:39:04.853Z,20.03
2018-01-13T09:41:37.454Z,17.37
2018-01-13T09:44:10.149Z,18.73
2018-01-13T09:46:43.393Z,16.47
2018-01-13T09:49:16.761Z,19.30
2018-01-13T09:51:49.576Z,18.53
2018-01-13T09:54:22.145Z,17.17
2018-01-13T09:56:54.687Z,16.60
2018-01-13T09:59:28.916Z,16.43
2018-01-13T10:02:01.596Z,17.43
2018-01-13T10:04:34.208Z,17.17
2018-01-13T10:07:07.558Z,17.70
2018-01-13T10:09:40.843Z,16.00
2018-01-13T10:12:13.457Z,15.70
2018-01-13T10:14:46.014Z,14.67
2018-01-13T10:17:18.464Z,15.27
2018-01-13T10:19:51.112Z,13.57
2018-01-13T10:22:24.538Z,17.17
2018-01-13T10:24:58.344Z,18.63
2018-01-13T10:27:30.888Z,14.40
2018-01-13T10:30:03.472Z,17.70
2018-01-13T10:32:36.673Z,17.30
2018-01-13T10:35:09.476Z,15.43
2018-01-13T10:37:41.968Z,17.03
2018-01-13T10:40:14.472Z,15.60
2018-01-13T10:42:47.056Z,15.20
2018-01-13T10:45:19.548Z,15.50
2018-01-13T10:47:52.016Z,15.53
2018-01-13T10:50:24.426Z,13.60
2018-01-13T10:52:57.024Z,17.90
2018-01-13T10:55:29.656Z,17.47
2018-01-13T10:58:02.241Z,15.90
2018-01-13T11:00:34.912Z,17.67
2018-01-13T11:03:07.456Z,16.37
2018-01-13T11:05:40.061Z,18.63
2018-01-13T11:08:13.728Z,14.87
2018-01-13T11:10:46.255Z,16.10
2018-01-13T11:13:19.863Z,16.73
2018-01-13T11:15:52.449Z,15.47
2018-01-13T11:18:26.803Z,15.80
2018-01-13T11:20:59.475Z,15.30
2018-01-13T11:23:32.000Z,14.33
2018-01-13T11:26:04.465Z,12.30
2018-01-13T11:28:37.121Z,14.90
2018-01-13T11:31:09.932Z,16.13
2018-01-13T11:33:42.510Z,17.07
2018-01-13T11:36:15.051Z,17.03
2018-01-13T11:38:47.735Z,15.37
2018-01-13T11:41:20.177Z,17.30
2018-01-13T11:43:52.866Z,17.77
2018-01-13T11:46:26.643Z,15.07
2018-01-13T11:49:00.513Z,13.60
2018-01-13T11:51:34.043Z,13.63
2018-01-13T11:54:07.759Z,15.67
2018-01-13T11:56:41.552Z,13.77
2018-01-13T11:59:14.993Z,14.23
2018-01-13T12:01:48.444Z,14.63
2018-01-13T12:04:21.832Z,16.53
2018-01-13T12:06:54.693Z,16.43
2018-01-13T12:09:29.191Z,14.20
2018-01-13T12:12:02.737Z,15.23
2018-01-13T12:14:35.439Z,15.17
2018-01-13T12:17:09.085Z,13.77
2018-01-13T12:19:42.673Z,13.77
2018-01-13T12:22:16.064Z,14.87
2018-01-13T12:24:49.505Z,15.60
2018-01-13T12:27:23.848Z,14.90
2018-01-13T12:29:57.289Z,14.63
2018-01-13T12:32:30.003Z,14.20
2018-01-13T12:35:03.319Z,15.00
2018-01-13T12:37:36.044Z,12.57
2018-01-13T12:40:09.349Z,12.90
2018-01-13T12:42:42.787Z,15.00
2018-01-13T12:45:16.259Z,14.10
2018-01-13T12:47:49.771Z,14.00
2018-01-13T12:50:23.367Z,13.33
2018-01-13T12:52:57.639Z,10.90
2018-01-13T12:55:31.141Z,14.10
2018-01-13T12:58:04.741Z,15.80
2018-01-13T13:00:37.629Z,15.40
2018-01-13T13:03:11.111Z,14.67
2018-01-13T13:05:44.468Z,16.23
2018-01-13T13:08:18.848Z,15.63
2018-01-13T13:10:53.083Z,15.07
2018-01-13T13:13:25.947Z,16.70
2018-01-13T13:15:59.271Z,15.83
2018-01-13T13:18:32.912Z,17.50
2018-01-13T13:21:06.643Z,15.67
2018-01-13T13:23:40.693Z,15.43
2018-01-13T13:26:13.206Z,15.27
2018-01-13T13:28:46.808Z,15.20
2018-01-13T13:31:19.560Z,16.60
2018-01-13T13:33:53.067Z,16.00
2018-01-13T13:36:26.715Z,15.20
2018-01-13T13:38:59.939Z,14.33
2018-01-13T13:41:32.504Z,14.80
2018-01-13T13:44:06.499Z,17.03
2018-01-13T13:46:40.669Z,15.63
2018-01-13T13:49:14.415Z,15.53
2018-01-13T13:51:48.416Z,15.50
2018-01-13T13:54:21.608Z,15.50
2018-01-13T13:56:55.129Z,16.93
2018-01-13T13:59:28.319Z,17.43
2018-01-13T14:02:01.752Z,16.63
2018-01-13T14:04:34.323Z,15.87
2018-01-13T14:07:07.875Z,20.03
2018-01-13T14:09:41.257Z,17.27
2018-01-13T14:12:15.138Z,17.70
2018-01-13T14:14:48.310Z,17.67
2018-01-13T14:17:22.611Z,16.40
2018-01-13T14:19:56.239Z,18.47
2018-01-13T14:22:29.728Z,16.37
2018-01-13T14:25:03.126Z,16.40
2018-01-13T14:27:36.468Z,18.77
2018-01-13T14:30:10.118Z,18.30
2018-01-13T14:32:42.632Z,19.07
2018-01-13T14:35:15.614Z,16.90
2018-01-13T14:37:49.237Z,18.77
2018-01-13T14:40:22.430Z,17.37
2018-01-13T14:42:57.400Z,18.67
2018-01-13T14:45:29.939Z,19.13
2018-01-13T14:48:03.497Z,19.17
2018-01-13T14:50:37.026Z,17.30
2018-01-13T14:53:09.766Z,19.53
2018-01-13T14:55:43.357Z,18.27
2018-01-13T14:58:16.574Z,17.07
2018-01-13T15:00:50.165Z,17.23
2018-01-13T15:03:24.520Z,17.70
2018-01-13T15:05:57.960Z,18.17
2018-01-13T15:08:41.300Z,19.80
2018-01-13T15:11:14.642Z,17.30
2018-01-13T15:13:47.993Z,18.70
2018-01-13T15:16:31.816Z,17.87
2018-01-13T15:19:05.373Z,18.20
2018-01-13T15:21:39.038Z,18.17
2018-01-13T15:24:12.339Z,19.00
2018-01-13T15:26:45.509Z,18.50
2018-01-13T15:29:18.222Z,18.50
2018-01-13T15:31:51.598Z,17.40
2018-01-13T15:34:24.402Z,19.43
2018-01-13T15:36:57.789Z,17.90
2018-01-13T15:39:30.377Z,16.77
2018-01-13T15:42:02.899Z,16.17
2018-01-13T15:44:35.266Z,20.50
2018-01-13T15:47:08.709Z,20.53
2018-01-13T15:49:41.259Z,17.43
2018-01-13T15:52:13.878Z,23.07
2018-01-13T15:54:46.422Z,18.00
2018-01-13T15:57:18.909Z,20.20
2018-01-13T15:59:51.751Z,17.97
2018-01-13T16:02:24.371Z,20.03
2018-01-13T16:04:58.566Z,18.80
2018-01-13T16:07:31.416Z,20.67
2018-01-13T16:10:04.793Z,21.30
2018-01-13T16:12:37.462Z,20.53
2018-01-13T16:15:10.352Z,21.83
2018-01-13T16:17:42.899Z,18.10
2018-01-13T16:20:16.238Z,20.77
2018-01-13T16:22:48.774Z,21.60
2018-01-13T16:25:22.150Z,20.10
2018-01-13T16:27:55.565Z,18.43
2018-01-13T16:30:28.042Z,20.63
2018-01-13T16:33:01.320Z,19.40
2018-01-13T16:35:34.548Z,19.63
2018-01-13T16:38:07.344Z,19.27
2018-01-13T16:40:39.797Z,20.47
2018-01-13T16:43:12.532Z,22.53
2018-01-13T16:45:45.019Z,18.67
2018-01-13T16:48:17.612Z,19.00
2018-01-13T16:50:50.977Z,20.20
2018-01-13T16:53:23.804Z,21.47
2018-01-13T16:55:56.428Z,18.80
2018-01-13T16:58:29.641Z,19.83
2018-01-13T17:01:02.375Z,21.03
2018-01-13T17:03:35.034Z,18.93
2018-01-13T17:06:07.520Z,22.70
2018-01-13T17:08:39.935Z,19.37
2018-01-13T17:11:12.542Z,20.30
2018-01-13T17:13:45.765Z,18.20
2018-01-13T17:16:18.685Z,18.77
2018-01-13T17:18:52.054Z,18.30
2018-01-13T17:21:24.782Z,18.07
2018-01-13T17:23:58.008Z,17.30
2018-01-13T17:26:30.937Z,20.67
2018-01-13T17:29:03.534Z,17.17
2018-01-13T17:31:36.165Z,20.83
2018-01-13T17:34:08.613Z,19.87
2018-01-13T17:36:41.953Z,20.40
2018-01-13T17:39:14.719Z,19.40
2018-01-13T17:41:47.319Z,17.97
2018-01-13T17:44:21.398Z,19.70
2018-01-13T17:46:54.205Z,19.37
2018-01-13T17:49:27.600Z,21.30
2018-01-13T17:52:00.239Z,18.77
2018-01-13T17:54:32.696Z,18.20
2018-01-13T17:57:05.316Z,19.60
2018-01-13T17:59:37.796Z,17.73
2018-01-13T18:02:10.883Z,18.17
2018-01-13T18:04:43.442Z,20.33
2018-01-13T18:07:16.012Z,18.00
2018-01-13T18:09:49.981Z,16.77
2018-01-13T18:12:23.434Z,19.37
2018-01-13T18:14:56.194Z,15.20
2018-01-13T18:17:28.907Z,17.27
2018-01-13T18:20:01.906Z,17.97
2018-01-13T18:22:35.606Z,16.00
2018-01-13T18:25:09.077Z,15.73
2018-01-13T18:27:41.965Z,14.77
2018-01-13T18:30:15.552Z,17.20
2018-01-13T18:32:48.780Z,16.20
2018-01-13T18:35:22.096Z,17.40
2018-01-13T18:37:54.696Z,18.80
2018-01-13T18:40:27.343Z,17.73
2018-01-13T18:42:59.932Z,17.10
2018-01-13T18:45:32.496Z,19.57
2018-01-13T18:48:05.226Z,15.43
2018-01-13T18:50:37.678Z,16.60
2018-01-13T18:53:10.480Z,15.23
2018-01-13T18:55:43.635Z,15.43
2018-01-13T18:58:16.321Z,15.83
2018-01-13T19:00:59.908Z,17.53
2018-01-13T19:03:34.896Z,16.20
2018-01-13T19:06:08.677Z,15.53
2018-01-13T19:08:41.834Z,16.57
2018-01-13T19:11:16.693Z,18.70
2018-01-13T19:13:50.120Z,16.10
2018-01-13T19:16:23.521Z,17.63
2018-01-13T19:18:56.964Z,16.53
2018-01-13T19:21:30.589Z,16.20
2018-01-13T19:24:04.982Z,15.70
2018-01-13T19:26:39.147Z,14.07
2018-01-13T19:29:12.743Z,16.47
2018-01-13T19:31:45.989Z,15.30
2018-01-13T19:34:20.047Z,13.70
2018-01-13T19:36:54.061Z,15.37
2018-01-13T19:39:27.818Z,14.43
2018-01-13T19:42:01.278Z,12.50
2018-01-13T19:44:35.003Z,16.37
2018-01-13T19:47:09.525Z,15.10
2018-01-13T19:49:44.876Z,17.30
2018-01-13T19:52:21.310Z,15.97
2018-01-13T19:54:56.592Z,14.50
2018-01-13T19:57:32.434Z,15.20
2018-01-13T20:00:07.520Z,14.83
2018-01-13T20:02:42.804Z,15.60
2018-01-13T20:05:27.704Z,15.07
2018-01-13T20:08:02.082Z,16.20
2018-01-13T20:10:37.008Z,13.70
2018-01-13T20:13:13.304Z,14.80
2018-01-13T20:15:48.582Z,13.80
2018-01-13T20:18:36.285Z,13.67
2018-01-13T20:21:11.641Z,12.57
2018-01-13T20:23:46.914Z,13.67
2018-01-13T20:26:22.113Z,13.00
2018-01-13T20:28:57.863Z,12.23
2018-01-13T20:31:33.554Z,13.00
2018-01-13T20:34:09.526Z,13.17
2018-01-13T20:36:44.896Z,13.50
2018-01-13T20:39:20.753Z,13.20
2018-01-13T20:41:56.450Z,12.33
2018-01-13T20:44:31.935Z,13.97
2018-01-13T20:47:07.145Z,13.60
2018-01-13T20:49:42.487Z,13.17
2018-01-13T20:52:19.221Z,14.00
2018-01-13T20:54:54.808Z,15.50
2018-01-13T20:57:30.597Z,12.03
2018-01-13T21:00:06.187Z,14.33
2018-01-13T21:02:41.523Z,13.30
2018-01-13T21:05:16.959Z,12.57
2018-01-13T21:07:53.675Z,12.60
2018-01-13T21:10:29.079Z,14.00
2018-01-13T21:13:04.852Z,13.23
2018-01-13T21:15:40.498Z,15.53
2018-01-13T21:18:15.717Z,13.27
2018-01-13T21:20:50.959Z,13.87
2018-01-13T21:23:25.474Z,11.70
2018-01-13T21:25:59.944Z,14.00
2018-01-13T21:28:34.512Z,14.30
2018-01-13T21:31:08.364Z,14.20
2018-01-13T21:33:44.360Z,13.07
2018-01-13T21:36:19.502Z,11.80
2018-01-13T21:38:54.028Z,16.10
2018-01-13T21:41:28.858Z,15.37
2018-01-13T21:44:02.765Z,16.13
2018-01-13T21:46:36.158Z,14.30
2018-01-13T21:49:09.962Z,14.37
2018-01-13T21:51:45.305Z,13.10
2018-01-13T21:54:20.027Z,12.27
2018-01-13T21:56:54.450Z,13.33
2018-01-13T21:59:30.095Z,13.53
2018-01-13T22:02:03.386Z,14.60
2018-01-13T22:04:37.390Z,12.80
2018-01-13T22:07:11.610Z,12.30
2018-01-13T22:09:45.827Z,13.53
2018-01-13T22:12:19.115Z,13.30
2018-01-13T22:14:54.505Z,12.00
2018-01-13T22:17:28.312Z,13.10
2018-01-13T22:20:02.333Z,11.93
2018-01-13T22:22:35.558Z,14.93
2018-01-13T22:25:08.849Z,12.40
2018-01-13T22:27:42.115Z,13.30
2018-01-13T22:30:15.246Z,13.27
2018-01-13T22:32:48.113Z,12.03
2018-01-13T22:35:21.070Z,13.23
2018-01-13T22:37:54.211Z,12.60
2018-01-13T22:40:28.426Z,13.47
2018-01-13T22:43:01.912Z,11.53
2018-01-13T22:45:35.432Z,12.77
2018-01-13T22:48:09.168Z,14.10
2018-01-13T22:50:42.520Z,12.60
2018-01-13T22:53:15.943Z,13.47
2018-01-13T22:55:48.704Z,12.40
2018-01-13T22:58:21.428Z,13.80
2018-01-13T23:00:54.821Z,13.10
2018-01-13T23:03:27.360Z,12.40
2018-01-13T23:05:59.882Z,14.50
2018-01-13T23:08:32.345Z,14.47
2018-01-13T23:11:05.798Z,13.90
2018-01-13T23:13:38.675Z,14.63
2018-01-13T23:16:11.129Z,13.00
2018-01-13T23:18:45.219Z,13.60
2018-01-13T23:21:18.264Z,13.40
2018-01-13T23:23:50.827Z,13.60
2018-01-13T23:26:23.549Z,13.80
2018-01-13T23:28:56.241Z,13.87
2018-01-13T23:31:28.933Z,13.40
2018-01-13T23:34:01.410Z,14.90
2018-01-13T23:36:33.963Z,12.77
2018-01-13T23:39:06.376Z,13.40
2018-01-13T23:41:38.844Z,13.47
2018-01-13T23:44:11.261Z,11.87
2018-01-13T23:46:44.007Z,12.97
2018-01-13T23:49:16.690Z,13.27
2018-01-13T23:51:49.199Z,13.60
2018-01-13T23:54:21.766Z,12.20
2018-01-13T23:56:54.381Z,12.80
2018-01-13T23:59:27.883Z,13.37
